Terminal Aerodrome Forecast
Issued by NWS Bismarck, ND

Home | Current Version | Previous Version | Graphics & Text | Print | Product List | Glossary On
Versions: 1 2 3 4 5 6 7 8 9 10 11 12 13 14 15 16 17 18 19 20 21 22 23 24
492
FTUS43 KBIS 292126 AAC
TAFBIS
TAF AMD
KBIS 292126Z 2921/3018 15007KT P6SM VCTS BKN080CB
      TEMPO 2921/2923 15012G21KT
     FM300300 12005KT P6SM SCT120=

USA.gov is the U.S. government's official web portal to all federal, state and local government web resources and services.